Time;durP1;ratioP1;P1;durP2;ratioP2;P2;SDS_P1;SDS_P2;PMS_P1;PMS_P2;Temp;Humidity;BMP_temperature;BMP_pressure;BME280_temperature;BME280_humidity;BME280_pressure;Samples;Min_cycle;Max_cycle;Signal;HPM_P1;HPM_P2
2022/01/06 00:00:28;;;;;;;5.40;2.47;;;;;;;19.99;34.76;98777.25;2064756;28;20064;-65
2022/01/06 00:01:33;;;;;;;4.53;2.13;;;;;;;19.99;34.68;98772.53;2065868;28;20054;-63
2022/01/06 00:02:37;;;;;;;4.10;2.38;;;;;;;20.01;34.51;98777.59;2066789;28;20075;-62
2022/01/06 00:03:46;;;;;;;4.22;2.30;;;;;;;20.01;34.65;98777.59;2064954;28;20057;-63
2022/01/06 00:04:51;;;;;;;4.47;2.42;;;;;;;20.02;34.99;98777.22;2064899;28;20057;-64
2022/01/06 00:05:56;;;;;;;5.22;2.72;;;;;;;20.02;35.05;98782.69;2066845;28;20514;-64
2022/01/06 00:07:04;;;;;;;4.40;2.30;;;;;;;20.04;34.64;98787.75;2067747;28;20061;-63
2022/01/06 00:08:14;;;;;;;5.13;2.30;;;;;;;20.05;34.97;98786.59;2064553;28;20726;-63
2022/01/06 00:09:20;;;;;;;4.00;2.05;;;;;;;20.05;34.63;98787.38;2063750;28;20215;-63
2022/01/06 00:10:28;;;;;;;3.42;2.20;;;;;;;20.06;34.62;98790.88;2064256;28;20042;-64
2022/01/06 00:11:31;;;;;;;3.47;2.50;;;;;;;20.07;34.53;98790.47;2065413;28;20051;-64
2022/01/06 00:12:43;;;;;;;4.20;2.10;;;;;;;20.08;34.33;98792.03;2064241;28;20059;-65
2022/01/06 00:13:53;;;;;;;4.65;2.22;;;;;;;20.07;34.27;98786.94;2064834;28;20481;-63
2022/01/06 00:15:05;;;;;;;3.65;2.08;;;;;;;20.06;34.54;98785.41;2066082;28;20100;-65
2022/01/06 00:16:15;;;;;;;5.28;2.20;;;;;;;20.05;34.55;98797.56;2065785;28;20058;-64
2022/01/06 00:17:38;;;;;;;4.30;2.38;;;;;;;20.05;34.68;98792.06;2067277;28;20053;-63
2022/01/06 00:23:23;;;;;;;5.45;2.20;;;;;;;20.03;34.66;98783.47;2066967;28;20057;-64
2022/01/06 00:24:30;;;;;;;7.07;2.88;;;;;;;19.99;34.47;98788.97;2065649;28;20058;-64
2022/01/06 00:25:37;;;;;;;4.32;2.17;;;;;;;20.03;34.61;98794.44;2066910;28;20042;-64
2022/01/06 00:26:45;;;;;;;4.32;2.17;;;;;;;20.03;34.27;98795.19;2066396;28;20484;-65
2022/01/06 00:27:49;;;;;;;3.53;1.90;;;;;;;20.01;34.36;98796.78;2073319;28;20601;-64
2022/01/06 00:28:53;;;;;;;4.45;2.47;;;;;;;20.01;34.36;98805.00;2071673;28;20052;-65
2022/01/06 00:29:57;;;;;;;4.65;2.50;;;;;;;20.00;34.30;98800.72;2066994;28;20046;-64
2022/01/06 00:31:06;;;;;;;11.63;2.30;;;;;;;20.01;34.31;98802.28;2066492;28;20080;-64
2022/01/06 00:32:10;;;;;;;5.45;3.53;;;;;;;20.01;34.65;98807.75;2063552;28;20050;-64
2022/01/06 00:33:14;;;;;;;4.65;2.55;;;;;;;20.00;34.43;98811.69;2064636;28;20757;-64
2022/01/06 00:34:22;;;;;;;4.35;2.22;;;;;;;19.99;34.51;98810.91;2066619;28;20057;-64
2022/01/06 00:35:30;;;;;;;;;;;;;;;19.98;34.25;98816.78;2066483;28;20058;-64
2022/01/06 00:36:36;;;;;;;5.68;3.53;;;;;;;19.95;33.90;98812.09;2064235;28;19926;-65
2022/01/06 00:37:39;;;;;;;2.92;2.33;;;;;;;19.95;33.95;98812.91;2066635;28;20057;-64
2022/01/06 00:38:44;;;;;;;3.75;2.60;;;;;;;19.96;34.28;98805.47;2064587;28;20637;-64
2022/01/06 00:39:49;;;;;;;3.63;2.70;;;;;;;19.94;34.08;98819.56;2064902;28;20046;-64
2022/01/06 00:40:54;;;;;;;8.48;5.22;;;;;;;19.93;34.32;98817.19;2066776;28;20065;-65
2022/01/06 00:42:00;;;;;;;5.03;3.35;;;;;;;19.92;34.11;98810.94;2066716;28;20621;-64
2022/01/06 00:43:09;;;;;;;4.72;3.00;;;;;;;19.91;34.55;98812.09;2065360;28;20066;-65
2022/01/06 00:44:14;;;;;;;5.63;2.65;;;;;;;19.92;34.48;98810.94;2071553;28;20049;-64
2022/01/06 00:45:18;;;;;;;4.18;2.88;;;;;;;19.94;34.29;98810.56;2070735;28;20054;-64
2022/01/06 00:46:25;;;;;;;3.03;2.30;;;;;;;19.95;34.31;98818.38;2065250;28;20050;-64
2022/01/06 00:47:29;;;;;;;6.47;3.78;;;;;;;19.95;34.01;98812.91;2065664;28;20070;-64
2022/01/06 00:48:34;;;;;;;4.88;3.40;;;;;;;19.95;34.15;98815.66;2064659;28;20049;-64
2022/01/06 00:49:43;;;;;;;6.13;2.83;;;;;;;19.97;34.23;98817.97;2071782;28;20057;-64
2022/01/06 00:50:47;;;;;;;5.85;3.70;;;;;;;19.93;34.12;98814.47;2070891;28;20437;-64
2022/01/06 00:51:53;;;;;;;5.22;2.80;;;;;;;19.94;33.91;98818.78;2065987;28;20062;-64
2022/01/06 00:52:57;;;;;;;3.90;2.45;;;;;;;19.95;33.86;98825.81;2065776;28;20042;-63
2022/01/06 00:54:02;;;;;;;6.25;2.53;;;;;;;19.93;34.14;98812.50;2064574;28;20062;-64
2022/01/06 00:55:07;;;;;;;4.82;2.70;;;;;;;19.96;33.79;98827.38;2064932;28;20060;-64
2022/01/06 00:56:12;;;;;;;3.63;2.25;;;;;;;19.97;34.25;98826.97;2065406;28;20050;-64
2022/01/06 00:57:20;;;;;;;4.13;2.47;;;;;;;19.96;33.83;98827.38;2066195;28;20065;-63
2022/01/06 00:58:24;;;;;;;3.92;2.35;;;;;;;19.98;34.14;98825.00;2064931;28;20057;-63
2022/01/06 00:59:28;;;;;;;4.05;2.30;;;;;;;19.97;34.17;98829.72;2063845;28;20053;-63
2022/01/06 01:00:40;;;;;;;6.72;4.07;;;;;;;19.98;33.88;98830.47;2065769;28;20050;-66
2022/01/06 01:01:44;;;;;;;5.53;3.70;;;;;;;19.95;34.26;98829.34;2066340;28;20058;-64
2022/01/06 01:02:49;;;;;;;5.25;3.22;;;;;;;19.97;34.13;98828.94;2064897;28;20485;-63
2022/01/06 01:03:54;;;;;;;3.53;2.80;;;;;;;19.96;34.53;98827.38;2068873;28;20049;-63
2022/01/06 01:05:05;;;;;;;4.82;2.90;;;;;;;19.97;34.66;98834.41;2068367;28;20845;-64
2022/01/06 01:06:10;;;;;;;4.13;2.35;;;;;;;19.95;34.39;98834.84;2069285;28;20054;-62
2022/01/06 01:07:14;;;;;;;4.82;2.30;;;;;;;19.95;34.63;98836.78;2069421;28;20053;-64
2022/01/06 01:08:21;;;;;;;4.28;2.60;;;;;;;19.96;34.46;98841.09;2069487;28;20624;-64
2022/01/06 01:09:25;;;;;;;4.57;3.05;;;;;;;19.94;34.15;98846.19;2069626;28;20065;-64
2022/01/06 01:10:31;;;;;;;4.40;2.60;;;;;;;19.94;34.07;98841.47;2069286;28;20058;-65
2022/01/06 01:11:38;;;;;;;4.05;2.30;;;;;;;19.94;34.32;98846.19;2068870;28;20053;-65
2022/01/06 01:12:47;;;;;;;3.00;2.50;;;;;;;19.94;34.34;98846.19;2069616;28;20553;-65
2022/01/06 01:14:07;;;;;;;2.88;2.35;;;;;;;19.96;34.28;98852.81;2068760;28;20094;-65
2022/01/06 01:15:18;;;;;;;2.80;2.47;;;;;;;19.95;34.52;98842.25;2069977;28;20057;-65
2022/01/06 01:16:28;;;;;;;3.88;2.40;;;;;;;19.91;34.20;98843.03;2069738;28;20058;-65
2022/01/06 01:17:34;;;;;;;4.28;2.60;;;;;;;19.95;34.34;98847.72;2068574;28;20050;-65
2022/01/06 01:18:45;;;;;;;4.30;2.60;;;;;;;19.94;34.11;98857.16;2068717;28;20118;-65
2022/01/06 01:19:50;;;;;;;9.02;6.57;;;;;;;19.94;34.23;98857.16;2076522;28;20049;-65
2022/01/06 01:20:57;;;;;;;4.72;3.00;;;;;;;19.93;34.48;98855.56;2076052;28;20057;-65
2022/01/06 01:22:01;;;;;;;3.53;3.00;;;;;;;19.94;34.38;98862.63;2068707;28;20117;-65
2022/01/06 01:23:07;;;;;;;5.30;2.80;;;;;;;19.91;34.35;98859.47;2069103;28;20074;-65
2022/01/06 01:24:12;;;;;;;3.97;2.70;;;;;;;19.91;34.37;98864.94;2067955;28;20054;-64
2022/01/06 01:25:19;;;;;;;5.07;2.50;;;;;;;19.94;34.60;98868.13;2067865;28;20061;-65
2022/01/06 01:26:23;;;;;;;5.47;2.50;;;;;;;19.93;34.65;98872.00;2068995;28;20406;-64
2022/01/06 01:27:34;;;;;;;4.63;2.83;;;;;;;19.94;34.73;98868.13;2068855;28;20046;-65
2022/01/06 01:28:46;;;;;;;3.20;2.50;;;;;;;19.92;34.64;98865.75;2069367;28;20053;-64
2022/01/06 01:29:58;;;;;;;3.05;2.20;;;;;;;19.96;34.48;98879.47;2069109;28;20076;-64
2022/01/06 01:31:18;;;;;;;3.55;2.50;;;;;;;19.96;34.56;98887.69;2069870;28;20049;-64
2022/01/06 01:32:29;;;;;;;4.25;2.90;;;;;;;19.96;34.52;98884.94;2069044;28;20046;-65
2022/01/06 01:33:37;;;;;;;4.03;2.78;;;;;;;19.95;34.23;98891.59;2069312;28;20062;-65
2022/01/06 01:34:45;;;;;;;5.60;3.22;;;;;;;19.91;34.46;98884.13;2070240;28;20081;-65
2022/01/06 01:35:50;;;;;;;5.38;2.70;;;;;;;19.91;34.55;98878.66;2070084;28;20046;-65
2022/01/06 01:36:59;;;;;;;3.88;2.47;;;;;;;19.90;34.62;98890.81;2070096;28;20054;-65
2022/01/06 01:38:03;;;;;;;4.43;2.38;;;;;;;19.90;34.52;98896.28;2069797;28;20057;-63
2022/01/06 01:39:08;;;;;;;4.43;3.17;;;;;;;19.90;34.82;98896.28;2068890;28;20257;-64
2022/01/06 01:40:14;;;;;;;4.47;3.05;;;;;;;19.80;34.60;98886.19;2068759;28;20061;-64
2022/01/06 01:41:21;;;;;;;4.93;3.70;;;;;;;19.87;34.51;98902.56;2069372;28;20054;-65
2022/01/06 01:42:26;;;;;;;3.75;2.70;;;;;;;19.81;34.21;98906.91;2070529;28;20064;-65
2022/01/06 01:43:31;;;;;;;6.53;3.92;;;;;;;19.83;34.55;98907.31;2070291;28;20061;-66
2022/01/06 01:44:35;;;;;;;4.20;2.55;;;;;;;19.82;34.38;98900.25;2070731;28;20062;-64
2022/01/06 01:45:45;;;;;;;5.15;3.65;;;;;;;19.80;34.49;98910.84;2070195;28;20404;-64
2022/01/06 01:46:59;;;;;;;4.32;3.20;;;;;;;19.82;34.68;98915.91;2069948;28;20050;-64
2022/01/06 01:48:09;;;;;;;3.70;2.78;;;;;;;19.70;34.84;98908.97;2070351;28;20564;-63
2022/01/06 01:49:29;;;;;;;5.15;3.80;;;;;;;19.64;34.68;98910.56;2069855;28;20061;-62
2022/01/06 01:50:36;;;;;;;4.00;2.70;;;;;;;19.57;34.83;98921.53;2069632;28;20066;-63
2022/01/06 01:51:43;;;;;;;7.28;2.75;;;;;;;19.52;34.88;98914.53;2069736;28;20054;-63
2022/01/06 01:52:53;;;;;;;3.47;2.50;;;;;;;19.51;34.92;98914.91;2070380;28;20517;-62
2022/01/06 01:53:57;;;;;;;3.35;2.40;;;;;;;19.46;35.20;98923.56;2070366;28;20048;-61
2022/01/06 01:55:03;;;;;;;3.50;2.30;;;;;;;19.43;35.14;98927.88;2070034;28;20301;-62
2022/01/06 01:56:14;;;;;;;6.93;2.30;;;;;;;19.40;35.02;98918.47;2070500;28;20429;-62
2022/01/06 01:57:18;;;;;;;4.93;2.58;;;;;;;19.40;35.19;98923.97;2070285;28;20061;-63
2022/01/06 01:58:23;;;;;;;3.85;2.28;;;;;;;19.41;34.93;98931.00;2069850;28;20050;-63
2022/01/06 01:59:31;;;;;;;2.58;2.20;;;;;;;19.38;34.93;98926.34;2070022;28;20061;-62
2022/01/06 02:00:35;;;;;;;3.25;2.20;;;;;;;19.40;35.08;98932.16;2070099;28;20635;-62
2022/01/06 02:01:42;;;;;;;3.05;2.22;;;;;;;19.41;35.12;98928.28;2070394;28;20065;-62
2022/01/06 02:02:47;;;;;;;3.92;2.60;;;;;;;19.42;34.99;98927.09;2070780;28;20410;-63
2022/01/06 02:03:50;;;;;;;2.83;2.00;;;;;;;19.41;34.95;98936.50;2070756;28;20038;-64
2022/01/06 02:04:55;;;;;;;2.53;1.80;;;;;;;19.37;35.08;98941.19;2071411;28;20405;-63
2022/01/06 02:06:01;;;;;;;2.30;1.83;;;;;;;19.32;34.88;98938.88;2071857;28;20057;-63
2022/01/06 02:07:05;;;;;;;2.45;1.80;;;;;;;19.32;34.79;98952.56;2071677;28;20343;-63
2022/01/06 02:08:13;;;;;;;3.80;1.80;;;;;;;19.35;35.20;98951.78;2071731;28;20137;-63
2022/01/06 02:09:20;;;;;;;2.05;1.58;;;;;;;19.30;35.25;98946.69;2071759;28;20045;-61
2022/01/06 02:10:26;;;;;;;4.32;2.05;;;;;;;19.35;35.19;98948.22;2071525;28;20054;-63
2022/01/06 02:11:30;;;;;;;2.33;1.63;;;;;;;19.39;35.21;98952.53;2072143;28;20060;-62
2022/01/06 02:12:37;;;;;;;2.80;1.70;;;;;;;19.36;35.28;98956.06;2072082;28;20065;-63
2022/01/06 02:13:46;;;;;;;2.60;1.83;;;;;;;19.35;35.47;98954.50;2071678;28;20053;-62
2022/01/06 02:14:51;;;;;;;2.22;1.50;;;;;;;19.33;35.18;98962.31;2071558;28;20048;-63
2022/01/06 02:15:59;;;;;;;2.45;1.60;;;;;;;19.32;35.18;98959.97;2071200;28;20104;-62
2022/01/06 02:17:05;;;;;;;2.42;1.77;;;;;;;19.29;35.43;98961.56;2072011;28;20064;-62
2022/01/06 02:18:09;;;;;;;2.42;1.83;;;;;;;19.32;35.36;98968.19;2071754;28;20053;-63
2022/01/06 02:19:16;;;;;;;2.17;1.75;;;;;;;19.29;35.14;98968.97;2070649;28;20053;-63
2022/01/06 02:20:23;;;;;;;2.40;1.67;;;;;;;19.24;35.07;98970.19;2070979;28;20054;-63
2022/01/06 02:21:28;;;;;;;3.38;1.60;;;;;;;19.22;35.25;98978.00;2072134;28;20056;-63
2022/01/06 02:22:32;;;;;;;2.10;1.58;;;;;;;19.22;35.26;98978.00;2072100;28;20064;-63
2022/01/06 02:23:37;;;;;;;3.60;1.80;;;;;;;19.25;35.28;98974.47;2070729;28;20787;-63
2022/01/06 02:24:41;;;;;;;1.70;1.40;;;;;;;19.25;35.24;98992.84;2071077;28;20050;-63
2022/01/06 02:25:46;;;;;;;1.80;1.50;;;;;;;19.21;34.90;98981.91;2071871;28;20057;-63
2022/01/06 02:26:50;;;;;;;1.65;1.48;;;;;;;19.20;35.21;98991.31;2070740;28;20418;-63
2022/01/06 02:28:00;;;;;;;2.10;1.60;;;;;;;19.19;35.06;98992.47;2071234;28;20049;-64
2022/01/06 02:29:02;;;;;;;2.22;1.52;;;;;;;19.16;34.89;98993.25;2070580;28;20356;-63
2022/01/06 02:30:11;;;;;;;1.92;1.50;;;;;;;19.19;35.11;98996.00;2070208;28;20057;-63
2022/01/06 02:31:17;;;;;;;2.05;1.48;;;;;;;19.22;35.53;98994.41;2070483;28;20053;-63
2022/01/06 02:32:23;;;;;;;1.80;1.33;;;;;;;19.24;35.25;99005.75;2070410;28;20681;-63
2022/01/06 02:33:28;;;;;;;3.60;1.35;;;;;;;19.24;35.00;99008.50;2071532;28;20046;-63
2022/01/06 02:34:33;;;;;;;3.17;1.30;;;;;;;19.04;35.03;98994.44;2071807;28;20065;-63
2022/01/06 02:35:40;;;;;;;1.75;1.30;;;;;;;19.14;35.24;99014.75;2071689;28;20069;-63
2022/01/06 02:36:44;;;;;;;3.17;1.15;;;;;;;19.15;35.33;99014.34;2072182;28;20050;-64
2022/01/06 02:37:49;;;;;;;5.18;1.70;;;;;;;19.15;34.97;99017.09;2071437;28;20053;-63
2022/01/06 02:38:55;;;;;;;1.90;1.70;;;;;;;19.12;35.15;99017.09;2070820;28;20390;-63
2022/01/06 02:39:59;;;;;;;2.13;1.40;;;;;;;19.10;35.09;99020.25;2070641;28;20063;-63
2022/01/06 02:41:03;;;;;;;1.55;1.30;;;;;;;19.11;35.29;99026.50;2070686;28;20042;-63
2022/01/06 02:42:10;;;;;;;2.03;1.38;;;;;;;19.08;35.32;99021.81;2071099;28;20058;-63
2022/01/06 02:43:17;;;;;;;2.55;1.85;;;;;;;19.05;35.10;99019.84;2070928;28;20056;-63
2022/01/06 02:44:21;;;;;;;3.55;1.60;;;;;;;19.09;35.23;99034.31;2070500;28;20058;-63
2022/01/06 02:45:29;;;;;;;2.25;1.45;;;;;;;19.08;35.26;99032.75;2069608;28;20056;-63
2022/01/06 02:46:33;;;;;;;3.65;1.63;;;;;;;19.09;35.37;99028.84;2070456;28;20068;-62
2022/01/06 02:47:39;;;;;;;2.08;1.35;;;;;;;19.10;35.18;99041.34;2071593;28;20474;-63
2022/01/06 02:48:43;;;;;;;1.60;1.15;;;;;;;19.08;35.25;99043.69;2071777;28;20092;-62
2022/01/06 02:49:48;;;;;;;2.03;1.30;;;;;;;19.06;35.35;99030.41;2071899;28;20605;-63
2022/01/06 02:50:55;;;;;;;3.50;1.52;;;;;;;19.06;35.34;99035.09;2071579;28;20050;-62
2022/01/06 02:52:01;;;;;;;2.25;1.40;;;;;;;19.04;35.00;99048.41;2071324;28;20061;-63
2022/01/06 02:53:05;;;;;;;3.63;1.42;;;;;;;19.03;35.16;99041.34;2071045;28;20089;-63
2022/01/06 02:54:09;;;;;;;5.75;1.20;;;;;;;19.03;35.25;99041.34;2070932;28;20096;-63
2022/01/06 02:55:14;;;;;;;1.40;1.17;;;;;;;19.01;35.17;99046.44;2071226;28;20053;-62
2022/01/06 02:56:19;;;;;;;1.70;1.30;;;;;;;18.98;34.93;99048.78;2071340;28;20057;-63
2022/01/06 02:57:25;;;;;;;2.00;1.60;;;;;;;18.94;35.22;99045.28;2071479;28;20714;-62
2022/01/06 02:58:30;;;;;;;1.77;1.20;;;;;;;18.92;35.62;99039.41;2071118;28;20061;-63
2022/01/06 02:59:34;;;;;;;2.22;1.52;;;;;;;18.96;35.32;99047.63;2070840;28;20494;-62
2022/01/06 03:00:39;;;;;;;1.88;1.38;;;;;;;18.96;35.45;99053.88;2070262;28;20062;-63
2022/01/06 03:01:44;;;;;;;4.63;1.58;;;;;;;18.98;35.53;99051.53;2070776;28;20057;-63
2022/01/06 03:02:49;;;;;;;1.85;1.50;;;;;;;19.02;35.14;99048.78;2071678;28;20050;-63
2022/01/06 03:03:52;;;;;;;2.47;1.45;;;;;;;19.04;35.14;99051.16;2071164;28;20038;-63
2022/01/06 03:04:58;;;;;;;3.28;1.80;;;;;;;19.03;35.22;99052.28;2070916;28;20045;-63
2022/01/06 03:06:04;;;;;;;1.83;1.30;;;;;;;18.99;35.35;99055.03;2070794;28;20709;-63
2022/01/06 03:07:09;;;;;;;3.72;1.73;;;;;;;18.99;35.26;99058.56;2071705;28;20045;-63
2022/01/06 03:08:13;;;;;;;2.47;1.38;;;;;;;19.01;35.22;99057.41;2070432;28;20053;-63
2022/01/06 03:09:25;;;;;;;2.03;1.20;;;;;;;19.02;35.23;99056.22;2069549;28;20060;-63
2022/01/06 03:10:28;;;;;;;2.33;1.17;;;;;;;19.02;35.14;99064.44;2071787;28;20058;-64
2022/01/06 03:11:33;;;;;;;1.75;1.10;;;;;;;18.96;35.23;99064.81;2070685;28;20080;-63
2022/01/06 03:12:39;;;;;;;1.80;1.38;;;;;;;18.96;35.31;99069.50;2071164;28;20508;-64
2022/01/06 03:13:47;;;;;;;1.52;1.10;;;;;;;18.95;35.34;99062.47;2071242;28;20608;-65
2022/01/06 03:14:51;;;;;;;2.03;1.00;;;;;;;18.97;35.48;99066.41;2071163;28;20222;-64
2022/01/06 03:15:56;;;;;;;2.67;1.20;;;;;;;18.98;35.42;99078.91;2070872;28;20053;-64
2022/01/06 03:16:59;;;;;;;1.60;1.10;;;;;;;19.00;35.31;99081.22;2071692;28;20050;-63
2022/01/06 03:18:03;;;;;;;1.45;1.17;;;;;;;18.97;35.06;99077.34;2071184;28;20054;-63
2022/01/06 03:19:07;;;;;;;2.65;1.08;;;;;;;18.92;35.35;99069.50;2071076;28;20160;-63
2022/01/06 03:20:13;;;;;;;1.73;1.08;;;;;;;18.88;35.30;99074.22;2071193;28;20418;-62
2022/01/06 03:21:18;;;;;;;5.03;1.40;;;;;;;18.83;35.07;99074.59;2078543;28;20429;-61
2022/01/06 03:22:25;;;;;;;2.13;1.08;;;;;;;18.81;35.25;99068.72;2070629;28;20050;-64
2022/01/06 03:23:29;;;;;;;2.58;1.08;;;;;;;18.80;35.42;99072.63;2070322;28;20050;-63
2022/01/06 03:24:34;;;;;;;0.90;0.80;;;;;;;18.81;35.26;99079.66;2071007;28;20070;-66
2022/01/06 03:25:37;;;;;;;1.35;1.02;;;;;;;18.90;35.17;99077.31;2070540;28;20052;-67
2022/01/06 03:26:42;;;;;;;1.88;1.02;;;;;;;18.94;34.94;99078.13;2071630;28;20421;-67
2022/01/06 03:27:47;;;;;;;1.40;1.00;;;;;;;18.99;34.80;99082.41;2070782;28;20046;-67
2022/01/06 03:28:55;;;;;;;2.70;0.88;;;;;;;18.98;34.76;99080.84;2070638;28;20054;-67
2022/01/06 03:29:58;;;;;;;1.08;0.80;;;;;;;19.02;34.81;99080.84;2069888;28;20056;-67
2022/01/06 03:31:05;;;;;;;1.42;0.80;;;;;;;19.01;34.78;99082.03;2062089;28;20043;-67
2022/01/06 03:32:10;;;;;;;2.65;0.80;;;;;;;19.05;34.74;99093.75;2070270;28;20034;-66
2022/01/06 03:33:15;;;;;;;0.90;0.80;;;;;;;19.07;34.89;99088.66;2071017;28;20049;-66
2022/01/06 03:34:19;;;;;;;0.95;0.80;;;;;;;19.08;35.01;99087.50;2071829;28;20410;-67
2022/01/06 03:35:26;;;;;;;1.38;0.90;;;;;;;19.09;34.99;99092.56;2071559;28;20046;-66
2022/01/06 03:36:33;;;;;;;1.58;0.88;;;;;;;19.16;35.23;99094.53;2071845;28;20125;-67
2022/01/06 03:37:38;;;;;;;1.77;0.82;;;;;;;19.15;34.72;99088.25;2071069;28;20243;-67
2022/01/06 03:38:44;;;;;;;1.23;0.88;;;;;;;19.15;34.80;99091.00;2070287;28;20056;-65
2022/01/06 03:39:48;;;;;;;1.73;0.90;;;;;;;19.14;34.83;99096.88;2071243;28;20057;-66
2022/01/06 03:40:51;;;;;;;1.52;0.70;;;;;;;19.13;34.69;99096.09;2070955;28;20072;-66
2022/01/06 03:41:58;;;;;;;0.93;0.55;;;;;;;19.12;34.90;99097.25;2071480;28;20049;-66
2022/01/06 03:43:04;;;;;;;1.58;0.80;;;;;;;19.13;34.79;99089.81;2070916;28;20065;-65
2022/01/06 03:44:11;;;;;;;1.77;0.90;;;;;;;19.13;34.53;99103.50;2070733;28;20057;-65
2022/01/06 03:45:18;;;;;;;0.70;0.60;;;;;;;19.12;34.80;99097.25;2070213;28;20053;-65
2022/01/06 03:46:22;;;;;;;0.52;0.50;;;;;;;19.13;34.71;99106.25;2070688;28;20517;-66
2022/01/06 03:47:29;;;;;;;1.98;0.95;;;;;;;19.14;34.71;99107.81;2070469;28;20053;-67
2022/01/06 03:48:32;;;;;;;1.38;0.75;;;;;;;19.15;34.59;99112.13;2070654;28;20433;-67
2022/01/06 03:49:37;;;;;;;0.90;0.70;;;;;;;19.11;34.82;99114.84;2071625;28;20057;-67
2022/01/06 03:50:41;;;;;;;1.10;0.75;;;;;;;19.14;34.60;99118.78;2071110;28;20042;-66
2022/01/06 03:51:48;;;;;;;0.95;0.60;;;;;;;19.17;34.10;99121.53;2071425;28;20038;-66
2022/01/06 03:52:50;;;;;;;1.55;1.05;;;;;;;19.13;34.53;99128.13;2069712;28;20049;-65
2022/01/06 03:53:58;;;;;;;1.17;0.82;;;;;;;19.18;34.66;99130.53;2070007;28;20085;-65
2022/01/06 03:55:03;;;;;;;1.45;1.10;;;;;;;19.21;34.65;99124.28;2070940;28;20054;-64
2022/01/06 03:56:08;;;;;;;0.80;0.80;;;;;;;19.20;34.47;99122.72;2071588;28;20544;-63
2022/01/06 03:57:12;;;;;;;0.80;0.73;;;;;;;19.20;34.56;99122.72;2070769;28;20418;-63
2022/01/06 03:58:17;;;;;;;0.80;0.80;;;;;;;19.16;34.55;99130.94;2070469;28;20065;-63
2022/01/06 03:59:21;;;;;;;1.38;0.80;;;;;;;19.18;34.55;99119.59;2070376;28;20289;-63
2022/01/06 04:00:27;;;;;;;1.83;1.00;;;;;;;19.21;34.26;99129.75;2071565;28;20378;-66
2022/01/06 04:01:30;;;;;;;1.08;0.80;;;;;;;19.17;34.55;99124.28;2071281;28;20044;-63
2022/01/06 04:02:35;;;;;;;1.42;0.80;;;;;;;19.18;34.86;99146.97;2070632;28;20076;-62
2022/01/06 04:03:39;;;;;;;0.80;0.65;;;;;;;19.12;34.49;99143.78;2070775;28;20053;-63
2022/01/06 04:04:45;;;;;;;0.80;0.70;;;;;;;19.07;34.50;99137.91;2070763;28;20041;-62
2022/01/06 04:05:50;;;;;;;1.15;0.70;;;;;;;19.09;34.46;99143.78;2077819;28;20065;-62
2022/01/06 04:06:57;;;;;;;1.08;0.80;;;;;;;19.07;34.47;99151.59;2077346;28;20045;-62
2022/01/06 04:08:04;;;;;;;1.15;0.73;;;;;;;19.05;34.48;99143.78;2070901;28;20406;-61
2022/01/06 04:09:10;;;;;;;0.98;0.70;;;;;;;18.96;34.47;99151.59;2071113;28;20057;-62
2022/01/06 04:10:14;;;;;;;1.75;0.80;;;;;;;18.93;34.42;99157.84;2070777;28;20046;-62
2022/01/06 04:11:18;;;;;;;1.15;0.77;;;;;;;18.90;34.81;99158.63;2070398;28;20410;-63
2022/01/06 04:12:23;;;;;;;1.50;0.88;;;;;;;18.88;34.77;99161.78;2071052;28;20041;-62
2022/01/06 04:13:30;;;;;;;1.23;0.73;;;;;;;18.80;34.68;99162.13;2069960;28;20049;-62
2022/01/06 04:14:35;;;;;;;1.40;0.63;;;;;;;18.75;34.88;99164.09;2069778;28;20437;-63
2022/01/06 04:15:39;;;;;;;1.90;0.90;;;;;;;18.72;34.97;99175.00;2070434;28;20045;-62
2022/01/06 04:16:45;;;;;;;0.88;0.65;;;;;;;18.72;35.12;99164.06;2069595;28;20056;-62
2022/01/06 04:17:48;;;;;;;0.75;0.70;;;;;;;18.68;35.09;99174.22;2077805;28;20056;-63
2022/01/06 04:18:53;;;;;;;0.90;0.60;;;;;;;18.67;34.96;99170.69;2077634;28;20049;-62
2022/01/06 04:19:56;;;;;;;0.60;0.60;;;;;;;18.69;35.25;99170.31;2071207;28;20414;-64
2022/01/06 04:21:02;;;;;;;1.13;0.60;;;;;;;18.69;35.25;99176.59;2070909;28;20046;-66
2022/01/06 04:22:08;;;;;;;0.65;0.50;;;;;;;18.79;35.34;99175.03;2070896;28;20065;-70
2022/01/06 04:23:13;;;;;;;0.80;0.50;;;;;;;18.86;34.95;99180.53;2070695;28;20054;-69
2022/01/06 04:24:17;;;;;;;0.85;0.70;;;;;;;18.95;35.55;99177.41;2070670;28;20042;-68
2022/01/06 04:25:22;;;;;;;2.33;0.50;;;;;;;19.01;35.05;99180.56;2071558;28;20077;-67
2022/01/06 04:26:28;;;;;;;1.10;0.65;;;;;;;19.05;34.93;99181.34;2078406;28;20041;-70
2022/01/06 04:27:34;;;;;;;1.75;0.70;;;;;;;19.10;35.06;99175.47;2077239;28;20064;-70
2022/01/06 04:28:38;;;;;;;0.77;0.60;;;;;;;19.12;34.68;99186.81;2070723;28;20505;-71
2022/01/06 04:29:43;;;;;;;1.38;0.60;;;;;;;19.13;34.85;99188.38;2070557;28;20050;-73
2022/01/06 04:30:48;;;;;;;0.70;0.52;;;;;;;19.18;35.05;99193.50;2070832;28;20042;-73
2022/01/06 04:31:54;;;;;;;1.05;0.80;;;;;;;19.20;35.07;99191.16;2071049;28;20528;-71
2022/01/06 04:33:02;;;;;;;1.25;0.77;;;;;;;19.21;34.85;99195.44;2070568;28;20053;-69
2022/01/06 04:34:07;;;;;;;0.60;0.60;;;;;;;19.21;34.72;99196.22;2071323;28;20050;-69
2022/01/06 04:35:14;;;;;;;1.20;0.70;;;;;;;19.19;34.45;99195.84;2071109;28;20053;-70
2022/01/06 04:36:21;;;;;;;0.88;0.70;;;;;;;19.14;34.08;99198.16;2071312;28;20064;-66
2022/01/06 04:37:28;;;;;;;0.73;0.50;;;;;;;19.13;34.48;99202.84;2070436;28;20064;-67
2022/01/06 04:38:33;;;;;;;0.80;0.63;;;;;;;19.13;34.49;99202.06;2070788;28;20054;-67
2022/01/06 04:39:37;;;;;;;1.00;0.60;;;;;;;19.11;34.45;99202.44;2070747;28;20057;-65
2022/01/06 04:40:43;;;;;;;1.85;0.63;;;;;;;19.11;34.19;99207.16;2070999;28;20057;-67
2022/01/06 04:41:47;;;;;;;0.95;0.60;;;;;;;19.10;34.23;99211.03;2070915;28;20054;-66
2022/01/06 04:42:52;;;;;;;0.75;0.50;;;;;;;19.10;34.30;99208.31;2070330;28;20054;-67
2022/01/06 04:43:55;;;;;;;0.95;0.65;;;;;;;19.07;34.08;99209.88;2070793;28;20518;-67
2022/01/06 04:45:00;;;;;;;1.83;0.50;;;;;;;19.06;34.30;99204.78;2070752;28;20045;-65
2022/01/06 04:46:06;;;;;;;1.15;0.63;;;;;;;19.05;34.17;99205.97;2070566;28;20049;-67
2022/01/06 04:47:11;;;;;;;1.67;0.50;;;;;;;19.02;34.33;99201.28;2069840;28;20046;-66
2022/01/06 04:48:15;;;;;;;0.93;0.50;;;;;;;18.91;33.83;99203.97;2070055;28;20402;-62
2022/01/06 04:49:22;;;;;;;0.65;0.50;;;;;;;18.82;34.18;99209.84;2070799;28;20054;-61
2022/01/06 04:50:29;;;;;;;0.73;0.50;;;;;;;18.74;34.22;99210.97;2070461;28;20054;-63
2022/01/06 04:51:32;;;;;;;1.40;0.57;;;;;;;18.68;34.56;99223.47;2069947;28;20054;-63
2022/01/06 04:52:41;;;;;;;0.80;0.50;;;;;;;18.59;34.66;99220.28;2070585;28;20823;-63
2022/01/06 04:53:45;;;;;;;1.05;0.50;;;;;;;18.55;34.57;99212.06;2070374;28;20049;-62
2022/01/06 04:54:50;;;;;;;1.10;0.50;;;;;;;18.57;34.57;99217.19;2070600;28;20058;-63
2022/01/06 04:55:59;;;;;;;3.05;0.57;;;;;;;18.55;34.66;99219.50;2070566;28;20501;-63
2022/01/06 04:57:02;;;;;;;0.60;0.50;;;;;;;18.50;34.70;99218.72;2070737;28;20042;-63
2022/01/06 04:58:09;;;;;;;0.90;0.50;;;;;;;18.49;34.68;99228.06;2071103;28;20054;-63
2022/01/06 04:59:12;;;;;;;1.83;0.60;;;;;;;18.47;34.72;99230.41;2070173;28;20054;-62
2022/01/06 05:00:18;;;;;;;0.50;0.38;;;;;;;18.46;34.72;99233.53;2070087;28;20748;-62
2022/01/06 05:01:22;;;;;;;1.10;0.52;;;;;;;18.42;34.75;99233.50;2069893;28;20438;-62
2022/01/06 05:02:26;;;;;;;1.48;0.77;;;;;;;18.37;34.60;99244.03;2070975;28;20053;-63
2022/01/06 05:03:30;;;;;;;0.90;0.60;;;;;;;18.35;34.94;99240.88;2070965;28;20065;-62
2022/01/06 05:04:36;;;;;;;1.15;0.50;;;;;;;18.39;35.14;99249.91;2070614;28;20618;-62
2022/01/06 05:05:39;;;;;;;2.05;0.93;;;;;;;18.38;34.90;99249.13;2070240;28;20163;-62
2022/01/06 05:06:45;;;;;;;6.82;0.60;;;;;;;18.41;34.78;99245.63;2070895;28;20054;-62
2022/01/06 05:07:53;;;;;;;1.77;0.60;;;;;;;18.42;35.05;99258.13;2070138;28;20054;-62
2022/01/06 05:09:01;;;;;;;1.10;0.57;;;;;;;18.38;34.62;99249.13;2070456;28;20049;-62
2022/01/06 05:10:06;;;;;;;3.67;0.60;;;;;;;18.34;35.20;99259.22;2069602;28;20050;-63
2022/01/06 05:11:11;;;;;;;1.80;0.60;;;;;;;18.38;35.05;99260.06;2062037;28;20074;-63
2022/01/06 05:12:17;;;;;;;1.50;0.80;;;;;;;18.38;34.91;99260.06;2069297;28;20061;-63
2022/01/06 05:13:23;;;;;;;1.17;0.80;;;;;;;18.36;34.76;99267.06;2070610;28;20046;-63
2022/01/06 05:14:29;;;;;;;1.20;0.70;;;;;;;18.33;34.91;99267.81;2077594;28;20430;-63
2022/01/06 05:15:35;;;;;;;1.25;0.68;;;;;;;18.35;34.93;99269.03;2077121;28;20505;-62